FDX795 KMCO-KIND
Flight info
| Callsign | FDX795 |
|---|---|
| Flight time | 1h 56m |
| Altitude | 30000 |
| Route | RDSOX1 JFRYS BRUTS Q118 THRSR Q79 SWAPP HAGAL GIIBS4 |
| Aircraft | B77L/H-SDE1E2E3FGHIJ2J3J4J5M1RWXY/LB1D1 |
Departure
| Time | 2026-04-21 18:38 |
|---|---|
| Airport | Orlando International Airport (KMCO) |
Arrival
| Time | 2026-04-21 20:35 |
|---|---|
| Airport | Indianapolis International Airport (KIND) |
| Time | Latitude | Longitude | Altitude | Speed | Heading |
|---|---|---|---|---|---|
| 2026-04-21 18:03 | 28.41473 | -81.33629 | 105 ft | 0 kts | 1° |
| 2026-04-21 18:23 | 28.41456 | -81.33629 | 105 ft | 4 kts | 1° |
| 2026-04-21 18:23 | 28.41429 | -81.33633 | 104 ft | 4 kts | 21° |
| 2026-04-21 18:24 | 28.41408 | -81.33649 | 102 ft | 4 kts | 59° |
| 2026-04-21 18:24 | 28.41402 | -81.33671 | 104 ft | 1 kts | 89° |
| 2026-04-21 18:27 | 28.41402 | -81.33655 | 103 ft | 4 kts | 89° |
| 2026-04-21 18:27 | 28.41402 | -81.33623 | 103 ft | 4 kts | 89° |
| 2026-04-21 18:27 | 28.41403 | -81.33593 | 104 ft | 0 kts | 89° |
| 2026-04-21 18:28 | 28.41403 | -81.33588 | 104 ft | 3 kts | 89° |
| 2026-04-21 18:29 | 28.41403 | -81.33512 | 106 ft | 14 kts | 90° |
| 2026-04-21 18:29 | 28.41404 | -81.33401 | 107 ft | 14 kts | 89° |
| 2026-04-21 18:29 | 28.41404 | -81.33290 | 108 ft | 14 kts | 90° |
| 2026-04-21 18:29 | 28.41405 | -81.33189 | 109 ft | 12 kts | 89° |
| 2026-04-21 18:30 | 28.41405 | -81.33133 | 109 ft | 0 kts | 89° |
| 2026-04-21 18:33 | 28.41405 | -81.33109 | 110 ft | 4 kts | 89° |
| 2026-04-21 18:34 | 28.41409 | -81.33074 | 109 ft | 4 kts | 76° |
| 2026-04-21 18:34 | 28.41429 | -81.33033 | 109 ft | 9 kts | 52° |
| 2026-04-21 18:34 | 28.41471 | -81.32984 | 110 ft | 9 kts | 46° |
| 2026-04-21 18:34 | 28.41512 | -81.32935 | 110 ft | 9 kts | 46° |
| 2026-04-21 18:35 | 28.41533 | -81.32897 | 110 ft | 9 kts | 70° |
| 2026-04-21 18:35 | 28.41534 | -81.32893 | 110 ft | 1 kts | 73° |
| 2026-04-21 18:35 | 28.41537 | -81.32851 | 109 ft | 7 kts | 88° |
| 2026-04-21 18:35 | 28.41537 | -81.32801 | 110 ft | 5 kts | 89° |
| 2026-04-21 18:36 | 28.41538 | -81.32761 | 110 ft | 5 kts | 89° |
| 2026-04-21 18:36 | 28.41539 | -81.32703 | 111 ft | 10 kts | 84° |
| 2026-04-21 18:36 | 28.41587 | -81.32667 | 114 ft | 1 kts | 359° |
| 2026-04-21 18:36 | 28.41592 | -81.32667 | 114 ft | 1 kts | 359° |
| 2026-04-21 18:37 | 28.41597 | -81.32667 | 111 ft | 1 kts | 359° |
| 2026-04-21 18:37 | 28.41599 | -81.32667 | 111 ft | 0 kts | 360° |
| 2026-04-21 18:37 | 28.41685 | -81.32666 | 110 ft | 33 kts | 0° |
| 2026-04-21 18:38 | 28.42169 | -81.32664 | 107 ft | 104 kts | 360° |
| 2026-04-21 18:38 | 28.43100 | -81.32677 | 110 ft | 160 kts | 360° |
| 2026-04-21 18:38 | 28.44283 | -81.32659 | 417 ft | 175 kts | 6° |
| 2026-04-21 18:38 | 28.45527 | -81.32726 | 1035 ft | 181 kts | 3° |
| 2026-04-21 18:39 | 28.46791 | -81.32767 | 1710 ft | 183 kts | 6° |
| 2026-04-21 18:39 | 28.48120 | -81.32764 | 2177 ft | 202 kts | 6° |
| 2026-04-21 18:39 | 28.49625 | -81.32750 | 2434 ft | 228 kts | 5° |
| 2026-04-21 18:39 | 28.51227 | -81.32752 | 3188 ft | 232 kts | 5° |
| 2026-04-21 18:40 | 28.52863 | -81.32766 | 3885 ft | 238 kts | 4° |
| 2026-04-21 18:40 | 28.54537 | -81.32819 | 4595 ft | 242 kts | 356° |
| 2026-04-21 18:40 | 28.55628 | -81.33166 | 5013 ft | 251 kts | 340° |
| 2026-04-21 18:40 | 28.57760 | -81.34315 | 5923 ft | 253 kts | 337° |
| 2026-04-21 18:41 | 28.59156 | -81.35562 | 6583 ft | 264 kts | 307° |
| 2026-04-21 18:41 | 28.59817 | -81.37559 | 7010 ft | 286 kts | 277° |
| 2026-04-21 18:41 | 28.59812 | -81.39869 | 6996 ft | 291 kts | 268° |
| 2026-04-21 18:41 | 28.59735 | -81.42122 | 6986 ft | 288 kts | 270° |
| 2026-04-21 18:42 | 28.59689 | -81.44413 | 6992 ft | 291 kts | 270° |
| 2026-04-21 18:42 | 28.59657 | -81.46741 | 6994 ft | 296 kts | 271° |
| 2026-04-21 18:42 | 28.59612 | -81.49081 | 6996 ft | 294 kts | 265° |
| 2026-04-21 18:42 | 28.59051 | -81.51299 | 7063 ft | 293 kts | 244° |
| 2026-04-21 18:43 | 28.58151 | -81.53401 | 7720 ft | 297 kts | 244° |
| 2026-04-21 18:43 | 28.57285 | -81.55513 | 8629 ft | 293 kts | 245° |
| 2026-04-21 18:43 | 28.56420 | -81.57642 | 9373 ft | 296 kts | 246° |
| 2026-04-21 18:43 | 28.55554 | -81.59787 | 10150 ft | 299 kts | 247° |
| 2026-04-21 18:44 | 28.54674 | -81.61973 | 10624 ft | 313 kts | 247° |
| 2026-04-21 18:44 | 28.53737 | -81.64312 | 10816 ft | 337 kts | 247° |
| 2026-04-21 18:44 | 28.52726 | -81.66829 | 10983 ft | 362 kts | 247° |
| 2026-04-21 18:44 | 28.51652 | -81.69502 | 11368 ft | 378 kts | 247° |
| 2026-04-21 18:45 | 28.50544 | -81.72255 | 12072 ft | 386 kts | 247° |
| 2026-04-21 18:45 | 28.49420 | -81.75043 | 12939 ft | 390 kts | 248° |
| 2026-04-21 18:45 | 28.48288 | -81.77853 | 13868 ft | 393 kts | 248° |
| 2026-04-21 18:45 | 28.47147 | -81.80688 | 14685 ft | 396 kts | 248° |
| 2026-04-21 18:46 | 28.45996 | -81.83543 | 15506 ft | 399 kts | 248° |
| 2026-04-21 18:46 | 28.44835 | -81.86422 | 16327 ft | 402 kts | 247° |
| 2026-04-21 18:46 | 28.43663 | -81.89321 | 17121 ft | 405 kts | 248° |
| 2026-04-21 18:46 | 28.42661 | -81.92288 | 17771 ft | 404 kts | 259° |
| 2026-04-21 18:47 | 28.42512 | -81.95419 | 18291 ft | 402 kts | 275° |
| 2026-04-21 18:47 | 28.42680 | -81.98620 | 18805 ft | 410 kts | 274° |
| 2026-04-21 18:47 | 28.42768 | -82.01848 | 19614 ft | 408 kts | 272° |
| 2026-04-21 18:47 | 28.42822 | -82.05072 | 20359 ft | 409 kts | 272° |
| 2026-04-21 18:48 | 28.42866 | -82.08313 | 21039 ft | 411 kts | 272° |
| 2026-04-21 18:48 | 28.42910 | -82.11568 | 21742 ft | 412 kts | 272° |
| 2026-04-21 18:48 | 28.42956 | -82.14832 | 22458 ft | 413 kts | 272° |
| 2026-04-21 18:48 | 28.43004 | -82.18103 | 23169 ft | 414 kts | 272° |
| 2026-04-21 18:49 | 28.43053 | -82.21378 | 23852 ft | 416 kts | 272° |
| 2026-04-21 18:49 | 28.43102 | -82.24671 | 24409 ft | 418 kts | 272° |
| 2026-04-21 18:49 | 28.43134 | -82.26862 | 24733 ft | 420 kts | 273° |
| 2026-04-21 18:49 | 28.43199 | -82.31331 | 25362 ft | 425 kts | 273° |
| 2026-04-21 18:50 | 28.43247 | -82.34704 | 25852 ft | 428 kts | 273° |
| 2026-04-21 18:50 | 28.43295 | -82.38101 | 26340 ft | 432 kts | 273° |
| 2026-04-21 18:50 | 28.43524 | -82.41482 | 26661 ft | 431 kts | 284° |
| 2026-04-21 18:50 | 28.44581 | -82.44633 | 26933 ft | 437 kts | 300° |
| 2026-04-21 18:51 | 28.46403 | -82.47408 | 27498 ft | 439 kts | 311° |
| 2026-04-21 18:51 | 28.48616 | -82.49787 | 28135 ft | 439 kts | 320° |
| 2026-04-21 18:51 | 28.51260 | -82.51559 | 28587 ft | 444 kts | 333° |
| 2026-04-21 18:51 | 28.54147 | -82.52887 | 28924 ft | 450 kts | 335° |
| 2026-04-21 18:52 | 28.57090 | -82.54178 | 29302 ft | 454 kts | 336° |
| 2026-04-21 18:52 | 28.60044 | -82.55471 | 29766 ft | 456 kts | 336° |
| 2026-04-21 18:52 | 28.62998 | -82.56782 | 30254 ft | 456 kts | 335° |
| 2026-04-21 18:53 | 28.68896 | -82.59467 | 30286 ft | 454 kts | 335° |
| 2026-04-21 18:53 | 28.74726 | -82.62174 | 30291 ft | 452 kts | 335° |
| 2026-04-21 18:54 | 28.80553 | -82.64896 | 30293 ft | 452 kts | 335° |
| 2026-04-21 18:54 | 28.86335 | -82.67599 | 30285 ft | 451 kts | 335° |
| 2026-04-21 18:55 | 28.91193 | -82.69870 | 30281 ft | 450 kts | 335° |
| 2026-04-21 18:55 | 28.97918 | -82.73017 | 30283 ft | 449 kts | 335° |
| 2026-04-21 18:56 | 29.03695 | -82.75723 | 30283 ft | 449 kts | 335° |
| 2026-04-21 18:56 | 29.09468 | -82.78432 | 30282 ft | 448 kts | 334° |
| 2026-04-21 18:57 | 29.15255 | -82.81150 | 30284 ft | 450 kts | 334° |
| 2026-04-21 18:57 | 29.20083 | -82.83420 | 30294 ft | 452 kts | 334° |
| 2026-04-21 18:58 | 29.25912 | -82.86165 | 30281 ft | 453 kts | 334° |
| 2026-04-21 18:58 | 29.31747 | -82.88915 | 30289 ft | 454 kts | 334° |
| 2026-04-21 18:59 | 29.37584 | -82.91669 | 30298 ft | 453 kts | 334° |
| 2026-04-21 18:59 | 29.43413 | -82.94423 | 30287 ft | 452 kts | 334° |
| 2026-04-21 19:00 | 29.49210 | -82.97166 | 30286 ft | 450 kts | 334° |
| 2026-04-21 19:00 | 29.54954 | -82.99887 | 30285 ft | 449 kts | 334° |
| 2026-04-21 19:01 | 29.60726 | -83.02625 | 30290 ft | 448 kts | 334° |
| 2026-04-21 19:01 | 29.66502 | -83.05369 | 30302 ft | 448 kts | 334° |
| 2026-04-21 19:02 | 29.72269 | -83.08113 | 30291 ft | 448 kts | 334° |
| 2026-04-21 19:02 | 29.77994 | -83.10840 | 30288 ft | 447 kts | 334° |
| 2026-04-21 19:03 | 29.83746 | -83.13583 | 30289 ft | 447 kts | 334° |
| 2026-04-21 19:03 | 29.89499 | -83.16331 | 30278 ft | 447 kts | 334° |
| 2026-04-21 19:04 | 29.95273 | -83.19092 | 30318 ft | 450 kts | 334° |
| 2026-04-21 19:04 | 30.01073 | -83.21869 | 30307 ft | 451 kts | 334° |
| 2026-04-21 19:05 | 30.06759 | -83.24592 | 30303 ft | 441 kts | 334° |
| 2026-04-21 19:05 | 30.12432 | -83.27316 | 30306 ft | 442 kts | 334° |
| 2026-04-21 19:06 | 30.18124 | -83.30053 | 30305 ft | 443 kts | 334° |
| 2026-04-21 19:06 | 30.23830 | -83.32798 | 30319 ft | 444 kts | 334° |
| 2026-04-21 19:07 | 30.29539 | -83.35552 | 30294 ft | 443 kts | 334° |
| 2026-04-21 19:07 | 30.35211 | -83.38294 | 30310 ft | 440 kts | 334° |
| 2026-04-21 19:08 | 30.40857 | -83.41027 | 30304 ft | 438 kts | 334° |
| 2026-04-21 19:08 | 30.46448 | -83.43737 | 30314 ft | 437 kts | 334° |
| 2026-04-21 19:09 | 30.52066 | -83.46464 | 30315 ft | 437 kts | 334° |
| 2026-04-21 19:09 | 30.57690 | -83.49197 | 30323 ft | 438 kts | 334° |
| 2026-04-21 19:10 | 30.63320 | -83.51937 | 30312 ft | 439 kts | 334° |
| 2026-04-21 19:10 | 30.68954 | -83.54681 | 30319 ft | 440 kts | 334° |
| 2026-04-21 19:11 | 30.74580 | -83.57426 | 30318 ft | 443 kts | 334° |
| 2026-04-21 19:11 | 30.80284 | -83.60212 | 30346 ft | 445 kts | 334° |
| 2026-04-21 19:12 | 30.86007 | -83.63010 | 30319 ft | 445 kts | 334° |
| 2026-04-21 19:12 | 30.91714 | -83.65803 | 30313 ft | 443 kts | 334° |
| 2026-04-21 19:13 | 30.97355 | -83.68568 | 30312 ft | 442 kts | 334° |
| 2026-04-21 19:13 | 31.03019 | -83.71349 | 30310 ft | 440 kts | 334° |
| 2026-04-21 19:14 | 31.08663 | -83.74123 | 30316 ft | 440 kts | 334° |
| 2026-04-21 19:14 | 31.14301 | -83.76900 | 30314 ft | 440 kts | 334° |
| 2026-04-21 19:15 | 31.19905 | -83.79662 | 30315 ft | 440 kts | 334° |
| 2026-04-21 19:15 | 31.25546 | -83.82445 | 30317 ft | 439 kts | 334° |
| 2026-04-21 19:16 | 31.31170 | -83.85224 | 30322 ft | 438 kts | 334° |
| 2026-04-21 19:16 | 31.36785 | -83.88002 | 30325 ft | 437 kts | 334° |
| 2026-04-21 19:17 | 31.45192 | -83.92169 | 30321 ft | 437 kts | 334° |
| 2026-04-21 19:17 | 31.50778 | -83.94890 | 30334 ft | 439 kts | 336° |
| 2026-04-21 19:18 | 31.56714 | -83.96757 | 30329 ft | 445 kts | 345° |
| 2026-04-21 19:18 | 31.62805 | -83.98066 | 30332 ft | 446 kts | 345° |
| 2026-04-21 19:19 | 31.68910 | -83.99396 | 30337 ft | 446 kts | 345° |
| 2026-04-21 19:19 | 31.75010 | -84.00745 | 30336 ft | 446 kts | 345° |
| 2026-04-21 19:20 | 31.81096 | -84.02100 | 30334 ft | 445 kts | 345° |
| 2026-04-21 19:20 | 31.87138 | -84.03449 | 30336 ft | 444 kts | 345° |
| 2026-04-21 19:21 | 31.93208 | -84.04807 | 30315 ft | 444 kts | 345° |
| 2026-04-21 19:21 | 31.99282 | -84.06166 | 30310 ft | 444 kts | 345° |
| 2026-04-21 19:22 | 32.05358 | -84.07528 | 30300 ft | 444 kts | 345° |
| 2026-04-21 19:22 | 32.11434 | -84.08892 | 30298 ft | 446 kts | 345° |
| 2026-04-21 19:23 | 32.17513 | -84.10259 | 30298 ft | 449 kts | 345° |
| 2026-04-21 19:23 | 32.23679 | -84.11647 | 30310 ft | 451 kts | 345° |
| 2026-04-21 19:24 | 32.29868 | -84.13042 | 30309 ft | 453 kts | 345° |
| 2026-04-21 19:24 | 32.36074 | -84.14441 | 30323 ft | 454 kts | 345° |
| 2026-04-21 19:25 | 32.42273 | -84.15841 | 30324 ft | 453 kts | 345° |
| 2026-04-21 19:25 | 32.48433 | -84.17234 | 30326 ft | 453 kts | 345° |
| 2026-04-21 19:26 | 32.54627 | -84.18639 | 30327 ft | 454 kts | 345° |
| 2026-04-21 19:26 | 32.60833 | -84.20047 | 30326 ft | 454 kts | 345° |
| 2026-04-21 19:27 | 32.67045 | -84.21459 | 30332 ft | 455 kts | 345° |
| 2026-04-21 19:27 | 32.73275 | -84.22876 | 30345 ft | 455 kts | 345° |
| 2026-04-21 19:28 | 32.79497 | -84.24294 | 30359 ft | 456 kts | 345° |
| 2026-04-21 19:28 | 32.85749 | -84.25722 | 30365 ft | 459 kts | 345° |
| 2026-04-21 19:29 | 32.92080 | -84.27172 | 30363 ft | 465 kts | 345° |
| 2026-04-21 19:29 | 32.98396 | -84.28615 | 30359 ft | 464 kts | 345° |
| 2026-04-21 19:30 | 33.04720 | -84.30061 | 30365 ft | 462 kts | 345° |
| 2026-04-21 19:30 | 33.11025 | -84.31508 | 30349 ft | 461 kts | 344° |
| 2026-04-21 19:31 | 33.17314 | -84.32955 | 30360 ft | 460 kts | 344° |
| 2026-04-21 19:31 | 33.23608 | -84.34405 | 30370 ft | 460 kts | 344° |
| 2026-04-21 19:32 | 33.29893 | -84.35854 | 30377 ft | 460 kts | 344° |
| 2026-04-21 19:32 | 33.36193 | -84.37309 | 30378 ft | 461 kts | 344° |
| 2026-04-21 19:33 | 33.42454 | -84.38756 | 30348 ft | 461 kts | 344° |
| 2026-04-21 19:33 | 33.48763 | -84.40218 | 30348 ft | 461 kts | 344° |
| 2026-04-21 19:34 | 33.55065 | -84.41679 | 30348 ft | 462 kts | 344° |
| 2026-04-21 19:34 | 33.61381 | -84.43146 | 30355 ft | 463 kts | 344° |
| 2026-04-21 19:35 | 33.70907 | -84.45270 | 30354 ft | 464 kts | 345° |
| 2026-04-21 19:36 | 33.77269 | -84.46647 | 30342 ft | 464 kts | 345° |
| 2026-04-21 19:36 | 33.83586 | -84.48027 | 30359 ft | 464 kts | 345° |
| 2026-04-21 19:37 | 33.89958 | -84.49427 | 30335 ft | 465 kts | 345° |
| 2026-04-21 19:37 | 33.96340 | -84.50832 | 30331 ft | 466 kts | 345° |
| 2026-04-21 19:38 | 34.02729 | -84.52240 | 30357 ft | 466 kts | 345° |
| 2026-04-21 19:38 | 34.08014 | -84.53523 | 30361 ft | 465 kts | 343° |
| 2026-04-21 19:39 | 34.15377 | -84.55478 | 30353 ft | 466 kts | 343° |
| 2026-04-21 19:39 | 34.21715 | -84.57151 | 30342 ft | 466 kts | 343° |
| 2026-04-21 19:40 | 34.28069 | -84.58808 | 30347 ft | 466 kts | 343° |
| 2026-04-21 19:40 | 34.34416 | -84.60460 | 30336 ft | 467 kts | 343° |
| 2026-04-21 19:41 | 34.40770 | -84.62116 | 30347 ft | 467 kts | 343° |
| 2026-04-21 19:41 | 34.47131 | -84.63779 | 30319 ft | 467 kts | 343° |
| 2026-04-21 19:42 | 34.53492 | -84.65444 | 30310 ft | 468 kts | 343° |
| 2026-04-21 19:42 | 34.59813 | -84.67093 | 30306 ft | 467 kts | 343° |
| 2026-04-21 19:43 | 34.66189 | -84.68677 | 30319 ft | 467 kts | 344° |
| 2026-04-21 19:43 | 34.72570 | -84.70245 | 30315 ft | 467 kts | 344° |
| 2026-04-21 19:44 | 34.78940 | -84.71820 | 30320 ft | 467 kts | 344° |
| 2026-04-21 19:44 | 34.85312 | -84.73407 | 30310 ft | 467 kts | 343° |
| 2026-04-21 19:45 | 34.91690 | -84.74999 | 30318 ft | 467 kts | 343° |
| 2026-04-21 19:45 | 34.98025 | -84.76582 | 30311 ft | 468 kts | 343° |
| 2026-04-21 19:46 | 35.04396 | -84.78177 | 30303 ft | 468 kts | 343° |
| 2026-04-21 19:46 | 35.10777 | -84.79777 | 30307 ft | 468 kts | 343° |
| 2026-04-21 19:47 | 35.16079 | -84.81107 | 30279 ft | 468 kts | 344° |
| 2026-04-21 19:47 | 35.22471 | -84.82714 | 30280 ft | 469 kts | 344° |
| 2026-04-21 19:48 | 35.28876 | -84.84328 | 30277 ft | 470 kts | 344° |
| 2026-04-21 19:48 | 35.35303 | -84.85949 | 30278 ft | 470 kts | 344° |
| 2026-04-21 19:49 | 35.41720 | -84.87570 | 30297 ft | 471 kts | 344° |
| 2026-04-21 19:49 | 35.48143 | -84.89195 | 30292 ft | 472 kts | 344° |
| 2026-04-21 19:50 | 35.54574 | -84.90825 | 30297 ft | 470 kts | 344° |
| 2026-04-21 19:50 | 35.60829 | -84.92409 | 30297 ft | 458 kts | 344° |
| 2026-04-21 19:51 | 35.67099 | -84.94000 | 30310 ft | 461 kts | 344° |
| 2026-04-21 19:51 | 35.73415 | -84.95603 | 30295 ft | 463 kts | 344° |
| 2026-04-21 19:52 | 35.79741 | -84.97212 | 30307 ft | 464 kts | 344° |
| 2026-04-21 19:52 | 35.86065 | -84.98818 | 30312 ft | 464 kts | 344° |
| 2026-04-21 19:53 | 35.92348 | -85.00419 | 30320 ft | 462 kts | 344° |
| 2026-04-21 19:53 | 35.98644 | -85.02027 | 30322 ft | 461 kts | 344° |
| 2026-04-21 19:54 | 36.04939 | -85.03637 | 30320 ft | 461 kts | 344° |
| 2026-04-21 19:54 | 36.11178 | -85.05236 | 30323 ft | 460 kts | 344° |
| 2026-04-21 19:55 | 36.17446 | -85.06845 | 30310 ft | 460 kts | 344° |
| 2026-04-21 19:55 | 36.23723 | -85.08458 | 30298 ft | 460 kts | 344° |
| 2026-04-21 19:56 | 36.29996 | -85.10073 | 30294 ft | 459 kts | 344° |
| 2026-04-21 19:56 | 36.36257 | -85.11688 | 30283 ft | 459 kts | 344° |
| 2026-04-21 19:57 | 36.42496 | -85.13299 | 30295 ft | 459 kts | 344° |
| 2026-04-21 19:57 | 36.48754 | -85.14919 | 30281 ft | 459 kts | 344° |
| 2026-04-21 19:58 | 36.55013 | -85.16541 | 30276 ft | 459 kts | 344° |
| 2026-04-21 19:58 | 36.61228 | -85.18154 | 30270 ft | 459 kts | 344° |
| 2026-04-21 19:59 | 36.67489 | -85.19758 | 30283 ft | 459 kts | 344° |
| 2026-04-21 19:59 | 36.73762 | -85.21350 | 30276 ft | 459 kts | 344° |
| 2026-04-21 20:00 | 36.80022 | -85.22942 | 30273 ft | 459 kts | 344° |
| 2026-04-21 20:00 | 36.86244 | -85.24530 | 30276 ft | 458 kts | 344° |
| 2026-04-21 20:01 | 36.92496 | -85.26131 | 30285 ft | 458 kts | 344° |
| 2026-04-21 20:01 | 36.98746 | -85.27733 | 30257 ft | 458 kts | 344° |
| 2026-04-21 20:02 | 37.05008 | -85.29341 | 30250 ft | 458 kts | 344° |
| 2026-04-21 20:02 | 37.11258 | -85.30950 | 30253 ft | 458 kts | 344° |
| 2026-04-21 20:03 | 37.17504 | -85.32560 | 30255 ft | 458 kts | 344° |
| 2026-04-21 20:03 | 37.23716 | -85.34163 | 30240 ft | 458 kts | 344° |
| 2026-04-21 20:04 | 37.29963 | -85.35777 | 30244 ft | 458 kts | 344° |
| 2026-04-21 20:04 | 37.36204 | -85.37394 | 30232 ft | 458 kts | 344° |
| 2026-04-21 20:05 | 37.42440 | -85.39012 | 30243 ft | 458 kts | 344° |
| 2026-04-21 20:05 | 37.48682 | -85.40635 | 30225 ft | 457 kts | 344° |
| 2026-04-21 20:06 | 37.54912 | -85.42256 | 30211 ft | 457 kts | 343° |
| 2026-04-21 20:06 | 37.61135 | -85.43879 | 30196 ft | 457 kts | 344° |
| 2026-04-21 20:07 | 37.67361 | -85.45506 | 30199 ft | 457 kts | 343° |
| 2026-04-21 20:07 | 37.73583 | -85.47134 | 30184 ft | 456 kts | 343° |
| 2026-04-21 20:08 | 37.79802 | -85.48764 | 30185 ft | 458 kts | 343° |
| 2026-04-21 20:08 | 37.86127 | -85.50430 | 30193 ft | 468 kts | 344° |
| 2026-04-21 20:09 | 37.92442 | -85.52088 | 30189 ft | 463 kts | 344° |
| 2026-04-21 20:09 | 37.98712 | -85.53736 | 30180 ft | 458 kts | 344° |
| 2026-04-21 20:10 | 38.04943 | -85.55382 | 30178 ft | 457 kts | 344° |
| 2026-04-21 20:10 | 38.11188 | -85.57036 | 30190 ft | 460 kts | 344° |
| 2026-04-21 20:11 | 38.17470 | -85.58700 | 30179 ft | 462 kts | 344° |
| 2026-04-21 20:11 | 38.23860 | -85.59953 | 30180 ft | 468 kts | 350° |
| 2026-04-21 20:12 | 38.30349 | -85.60730 | 30173 ft | 468 kts | 350° |
| 2026-04-21 20:12 | 38.36825 | -85.61636 | 30137 ft | 464 kts | 349° |
| 2026-04-21 20:13 | 38.43089 | -85.62580 | 30063 ft | 450 kts | 348° |
| 2026-04-21 20:13 | 38.46165 | -85.63053 | 29699 ft | 442 kts | 348° |
| 2026-04-21 20:13 | 38.49205 | -85.63520 | 29051 ft | 438 kts | 348° |
| 2026-04-21 20:13 | 38.52230 | -85.63986 | 28270 ft | 438 kts | 348° |
| 2026-04-21 20:14 | 38.55257 | -85.64449 | 27530 ft | 437 kts | 348° |
| 2026-04-21 20:14 | 38.58262 | -85.64906 | 27060 ft | 431 kts | 348° |
| 2026-04-21 20:14 | 38.61218 | -85.65341 | 26663 ft | 424 kts | 348° |
| 2026-04-21 20:14 | 38.64138 | -85.65766 | 26215 ft | 419 kts | 348° |
| 2026-04-21 20:15 | 38.67017 | -85.66185 | 25683 ft | 416 kts | 348° |
| 2026-04-21 20:15 | 38.69895 | -85.66608 | 25041 ft | 416 kts | 348° |
| 2026-04-21 20:15 | 38.72745 | -85.67028 | 24364 ft | 418 kts | 348° |
| 2026-04-21 20:15 | 38.75638 | -85.67456 | 23692 ft | 419 kts | 348° |
| 2026-04-21 20:16 | 38.78535 | -85.67884 | 23025 ft | 418 kts | 348° |
| 2026-04-21 20:16 | 38.81409 | -85.68306 | 22496 ft | 413 kts | 348° |
| 2026-04-21 20:16 | 38.84250 | -85.68723 | 21985 ft | 409 kts | 348° |
| 2026-04-21 20:16 | 38.87066 | -85.69138 | 21444 ft | 405 kts | 348° |
| 2026-04-21 20:17 | 38.89862 | -85.69553 | 20906 ft | 403 kts | 348° |
| 2026-04-21 20:17 | 38.92639 | -85.69965 | 20364 ft | 400 kts | 348° |
| 2026-04-21 20:17 | 38.95397 | -85.70374 | 19846 ft | 398 kts | 348° |
| 2026-04-21 20:17 | 38.98139 | -85.70780 | 19341 ft | 395 kts | 348° |
| 2026-04-21 20:18 | 38.99943 | -85.71048 | 18982 ft | 393 kts | 348° |
| 2026-04-21 20:18 | 39.03564 | -85.71610 | 18314 ft | 389 kts | 347° |
| 2026-04-21 20:18 | 39.06236 | -85.72083 | 17766 ft | 386 kts | 346° |
| 2026-04-21 20:18 | 39.08892 | -85.72563 | 17207 ft | 384 kts | 347° |
| 2026-04-21 20:19 | 39.11528 | -85.73031 | 16657 ft | 381 kts | 347° |
| 2026-04-21 20:19 | 39.14140 | -85.73490 | 16099 ft | 374 kts | 347° |
| 2026-04-21 20:19 | 39.16569 | -85.74200 | 15517 ft | 350 kts | 334° |
| 2026-04-21 20:19 | 39.18737 | -85.75501 | 14997 ft | 341 kts | 329° |
| 2026-04-21 20:20 | 39.20880 | -85.76838 | 14483 ft | 342 kts | 330° |
| 2026-04-21 20:20 | 39.23043 | -85.78119 | 13971 ft | 343 kts | 331° |
| 2026-04-21 20:20 | 39.25223 | -85.79379 | 13402 ft | 343 kts | 332° |
| 2026-04-21 20:20 | 39.27392 | -85.80625 | 13016 ft | 338 kts | 332° |
| 2026-04-21 20:21 | 39.29521 | -85.81848 | 12731 ft | 331 kts | 332° |
| 2026-04-21 20:21 | 39.31600 | -85.83042 | 12446 ft | 324 kts | 331° |
| 2026-04-21 20:21 | 39.33596 | -85.84311 | 12033 ft | 315 kts | 323° |
| 2026-04-21 20:21 | 39.35344 | -85.85984 | 11596 ft | 311 kts | 316° |
| 2026-04-21 20:22 | 39.36996 | -85.87790 | 11139 ft | 311 kts | 315° |
| 2026-04-21 20:22 | 39.40276 | -85.91370 | 10524 ft | 304 kts | 316° |
| 2026-04-21 20:22 | 39.41878 | -85.93066 | 10337 ft | 297 kts | 316° |
| 2026-04-21 20:23 | 39.43456 | -85.94721 | 10162 ft | 287 kts | 316° |
| 2026-04-21 20:23 | 39.44979 | -85.96313 | 10084 ft | 276 kts | 316° |
| 2026-04-21 20:23 | 39.46467 | -85.97865 | 9982 ft | 273 kts | 316° |
| 2026-04-21 20:23 | 39.47975 | -85.99361 | 9696 ft | 272 kts | 317° |
| 2026-04-21 20:24 | 39.49483 | -86.00832 | 9310 ft | 271 kts | 317° |
| 2026-04-21 20:24 | 39.50988 | -86.02299 | 8888 ft | 270 kts | 317° |
| 2026-04-21 20:24 | 39.52485 | -86.03763 | 8507 ft | 269 kts | 316° |
| 2026-04-21 20:24 | 39.53978 | -86.05227 | 8098 ft | 269 kts | 316° |
| 2026-04-21 20:25 | 39.55464 | -86.06685 | 7755 ft | 266 kts | 316° |
| 2026-04-21 20:25 | 39.56933 | -86.08130 | 7417 ft | 264 kts | 316° |
| 2026-04-21 20:25 | 39.58397 | -86.09568 | 7059 ft | 263 kts | 315° |
| 2026-04-21 20:25 | 39.59820 | -86.10989 | 6856 ft | 248 kts | 311° |
| 2026-04-21 20:26 | 39.61020 | -86.12480 | 6539 ft | 231 kts | 306° |
| 2026-04-21 20:26 | 39.62088 | -86.13915 | 6188 ft | 218 kts | 305° |
| 2026-04-21 20:26 | 39.63132 | -86.15313 | 5883 ft | 214 kts | 306° |
| 2026-04-21 20:26 | 39.64169 | -86.16693 | 5584 ft | 214 kts | 306° |
| 2026-04-21 20:27 | 39.65222 | -86.18065 | 5271 ft | 215 kts | 312° |
| 2026-04-21 20:27 | 39.66623 | -86.18872 | 4943 ft | 233 kts | 349° |
| 2026-04-21 20:27 | 39.68248 | -86.18437 | 4644 ft | 252 kts | 29° |
| 2026-04-21 20:27 | 39.69562 | -86.16916 | 4515 ft | 254 kts | 45° |
| 2026-04-21 20:28 | 39.70821 | -86.15243 | 4313 ft | 263 kts | 44° |
| 2026-04-21 20:28 | 39.72120 | -86.13566 | 4072 ft | 263 kts | 44° |
| 2026-04-21 20:28 | 39.73396 | -86.11919 | 3856 ft | 255 kts | 44° |
| 2026-04-21 20:28 | 39.74643 | -86.10317 | 3632 ft | 249 kts | 44° |
| 2026-04-21 20:29 | 39.75969 | -86.08930 | 3430 ft | 244 kts | 21° |
| 2026-04-21 20:29 | 39.77607 | -86.08535 | 3247 ft | 236 kts | 346° |
| 2026-04-21 20:29 | 39.79063 | -86.09243 | 3098 ft | 217 kts | 320° |
| 2026-04-21 20:29 | 39.80286 | -86.10367 | 3062 ft | 216 kts | 315° |
| 2026-04-21 20:30 | 39.81434 | -86.11564 | 2993 ft | 208 kts | 302° |
| 2026-04-21 20:30 | 39.81966 | -86.13117 | 2966 ft | 176 kts | 263° |
| 2026-04-21 20:30 | 39.81628 | -86.14517 | 2986 ft | 156 kts | 237° |
| 2026-04-21 20:30 | 39.81063 | -86.15703 | 2966 ft | 153 kts | 233° |
| 2026-04-21 20:31 | 39.80432 | -86.16770 | 2982 ft | 141 kts | 230° |
| 2026-04-21 20:31 | 39.79848 | -86.17723 | 3001 ft | 133 kts | 230° |
| 2026-04-21 20:31 | 39.79246 | -86.18602 | 2796 ft | 125 kts | 226° |
| 2026-04-21 20:31 | 39.78634 | -86.19417 | 2644 ft | 128 kts | 225° |
| 2026-04-21 20:32 | 39.77999 | -86.20241 | 2466 ft | 129 kts | 225° |
| 2026-04-21 20:32 | 39.77362 | -86.21062 | 2298 ft | 127 kts | 224° |
| 2026-04-21 20:32 | 39.76747 | -86.21850 | 2125 ft | 123 kts | 224° |
| 2026-04-21 20:32 | 39.76123 | -86.22649 | 1982 ft | 128 kts | 223° |
| 2026-04-21 20:33 | 39.75497 | -86.23451 | 1793 ft | 128 kts | 224° |
| 2026-04-21 20:33 | 39.74861 | -86.24258 | 1619 ft | 127 kts | 225° |
| 2026-04-21 20:33 | 39.74217 | -86.25075 | 1443 ft | 134 kts | 226° |
| 2026-04-21 20:33 | 39.73582 | -86.25900 | 1255 ft | 127 kts | 223° |
| 2026-04-21 20:34 | 39.72962 | -86.26702 | 1087 ft | 121 kts | 223° |
| 2026-04-21 20:34 | 39.72349 | -86.27473 | 930 ft | 127 kts | 224° |
| 2026-04-21 20:34 | 39.71712 | -86.28293 | 791 ft | 128 kts | 223° |
| 2026-04-21 20:34 | 39.71175 | -86.28971 | 795 ft | 81 kts | 225° |
| 2026-04-21 20:35 | 39.70892 | -86.29334 | 790 ft | 35 kts | 225° |
| 2026-04-21 20:35 | 39.70785 | -86.29358 | 794 ft | 8 kts | 137° |
| 2026-04-21 20:35 | 39.70739 | -86.29348 | 796 ft | 7 kts | 197° |
| 2026-04-21 20:35 | 39.70704 | -86.29381 | 796 ft | 5 kts | 219° |
| 2026-04-21 20:36 | 39.70680 | -86.29406 | 797 ft | 10 kts | 219° |
| 2026-04-21 20:36 | 39.70600 | -86.29475 | 797 ft | 12 kts | 190° |
| 2026-04-21 20:36 | 39.70535 | -86.29408 | 797 ft | 10 kts | 123° |
| 2026-04-21 20:36 | 39.70545 | -86.29325 | 797 ft | 12 kts | 56° |
| 2026-04-21 20:37 | 39.70615 | -86.29223 | 796 ft | 16 kts | 42° |
| 2026-04-21 20:37 | 39.70698 | -86.29122 | 793 ft | 17 kts | 44° |
| 2026-04-21 20:37 | 39.70784 | -86.29013 | 794 ft | 17 kts | 44° |
| 2026-04-21 20:37 | 39.70870 | -86.28903 | 795 ft | 17 kts | 44° |
| 2026-04-21 20:38 | 39.70950 | -86.28802 | 796 ft | 7 kts | 44° |
| 2026-04-21 20:38 | 39.70982 | -86.28760 | 797 ft | 7 kts | 44° |
| 2026-04-21 20:38 | 39.71018 | -86.28714 | 797 ft | 9 kts | 45° |
| 2026-04-21 20:38 | 39.71086 | -86.28626 | 796 ft | 18 kts | 44° |
| 2026-04-21 20:39 | 39.71181 | -86.28505 | 796 ft | 19 kts | 44° |
| 2026-04-21 20:39 | 39.71265 | -86.28397 | 793 ft | 14 kts | 44° |
| 2026-04-21 20:39 | 39.71322 | -86.28380 | 793 ft | 7 kts | 329° |
| 2026-04-21 20:39 | 39.71333 | -86.28392 | 793 ft | 2 kts | 316° |
| 2026-04-21 20:40 | 39.71345 | -86.28407 | 793 ft | 2 kts | 315° |
| 2026-04-21 20:40 | 39.71347 | -86.28410 | 793 ft | 0 kts | 315° |